Oxford, Indiana
Current Conditions -  °F | °C
As of 3:54 AM on Monday 22 Dec 2014 (Local Time) from KLAF Reporting Station
Clear Clear  
Wind Chill: 22°   Ceiling: Unl
Heat Index: 28°   Visibility: 7mi
Dew Point: 25°   Wind: 6mph
Humidity: 88%   Direction: 110°ESE
Pressure: 30.01"   Gusts: NA
Location:  40.52°N, 87.25°W
Report Text: KLAF 220854Z AUTO 11005KT 7SM CLR M02/M04 A3001 RMK AO2 SLP166 T10221039 56016 TSNO
Loading
Personal Weather Stations






























Interactive Weather Map New forecast layout! Learn more

10-Day Weather Forecast

Advertisements
Track Severe Weather on mobile